Algolake — VCPX — position and weather

sailwx.info

Track history (hours):
 
Tides and Currents Weather Stations Pressure Air Temp Water Temp Dewpoint Dewpoint Depression Visibility Wind Speed Wind Dir Waves Ship Positions

Algolake

Last reported at 2018-Apr-06 04:06 UTC. Time now 2018-May-20 12:04 UTC.
Position N 45°34' W 073°31'.
Warning: this ship's position is 44 days out of date.

Length 223 m; draft 7 m.

Type: Cargo ship. MMSI: 316001795.

Date/timePositionNaut miles runAvg speedWind from/ knotsBaromVisibWave heightAir tempDewpointWater temp
2018-Apr-06 04:06N 45°34' W 073°31'1 6.1
2018-Apr-06 03:54N 45°33' W 073°32'2 6.1
2018-Apr-06 03:31N 45°30' W 073°31'1 1.2
2018-Apr-06 03:01N 45°30' W 073°31'1 1.4
2018-Apr-06 02:31N 45°29' W 073°31'2 4.1
2018-Apr-06 02:01N 45°27' W 073°30'3 5.4
2018-Apr-06 01:31N 45°25' W 073°32'1 2.9
2018-Apr-06 01:01N 45°24' W 073°34'1 1.4
2018-Apr-06 00:31N 45°24' W 073°35'2 4.1
2018-Apr-06 00:00N 45°24' W 073°38'3 5.6
2018-Apr-05 23:30N 45°25' W 073°42'4 7.1
2018-Apr-05 23:01N 45°24' W 073°47'4 7.6
2018-Apr-05 22:31N 45°21' W 073°50'3 6.0
2018-Apr-05 21:59N 45°20' W 073°54'1 2.3
2018-Apr-05 21:30N 45°19' W 073°55'0 0.9
2018-Apr-05 21:00N 45°19' W 073°55'0 0.7
2018-Apr-05 20:30N 45°18' W 073°56'0 0.0
2018-Apr-05 20:00N 45°18' W 073°56'0 0.0
2018-Apr-05 19:30N 45°18' W 073°56'0 0.0
2018-Apr-05 19:00N 45°18' W 073°56'1 1.4
2018-Apr-05 18:30N 45°18' W 073°56'3 5.8
2018-Apr-05 18:00N 45°15' W 073°58'6 9.3
2018-Apr-05 17:21N 45°14' W 074°07'  
2018-Mar-27 08:52N 45°13' W 074°06'0 0.0
2018-Mar-27 04:36N 45°13' W 074°06'0 0.1
2018-Mar-27 04:29N 45°13' W 074°06'  
Track history (hours):
 
Tides and Currents Weather Stations Pressure Air Temp Water Temp Dewpoint Dewpoint Depression Visibility Wind Speed Wind Dir Waves Ship Positions

Algolake

Last reported at 2018-Apr-06 04:06 UTC. Time now 2018-May-20 12:04 UTC.
Position N 45°34' W 073°31'.
Warning: this ship's position is 44 days out of date.

Length 223 m; draft 7 m.

Type: Cargo ship. MMSI: 316001795.

Date/timePositionNaut miles runAvg speedWind from/ knotsBaromVisibWave heightAir tempDewpointWater temp
2018-Apr-06 04:06N 45°34' W 073°31'1 6.1
2018-Apr-06 03:54N 45°33' W 073°32'2 6.1
2018-Apr-06 03:31N 45°30' W 073°31'1 1.2
2018-Apr-06 03:01N 45°30' W 073°31'1 1.4
2018-Apr-06 02:31N 45°29' W 073°31'2 4.1
2018-Apr-06 02:01N 45°27' W 073°30'3 5.4
2018-Apr-06 01:31N 45°25' W 073°32'1 2.9
2018-Apr-06 01:01N 45°24' W 073°34'1 1.4
2018-Apr-06 00:31N 45°24' W 073°35'2 4.1
2018-Apr-06 00:00N 45°24' W 073°38'3 5.6
2018-Apr-05 23:30N 45°25' W 073°42'4 7.1
2018-Apr-05 23:01N 45°24' W 073°47'4 7.6
2018-Apr-05 22:31N 45°21' W 073°50'3 6.0
2018-Apr-05 21:59N 45°20' W 073°54'1 2.3
2018-Apr-05 21:30N 45°19' W 073°55'0 0.9
2018-Apr-05 21:00N 45°19' W 073°55'0 0.7
2018-Apr-05 20:30N 45°18' W 073°56'0 0.0
2018-Apr-05 20:00N 45°18' W 073°56'0 0.0
2018-Apr-05 19:30N 45°18' W 073°56'0 0.0
2018-Apr-05 19:00N 45°18' W 073°56'1 1.4
2018-Apr-05 18:30N 45°18' W 073°56'3 5.8
2018-Apr-05 18:00N 45°15' W 073°58'6 9.3
2018-Apr-05 17:21N 45°14' W 074°07'  
2018-Mar-27 08:52N 45°13' W 074°06'0 0.0
2018-Mar-27 04:36N 45°13' W 074°06'0 0.1
2018-Mar-27 04:29N 45°13' W 074°06'  

Dump ship's entire track history